createdAt,value
2022-10-17T00:00:07.838Z,95.14
2022-10-17T00:01:07.873Z,95.14
2022-10-17T00:02:07.822Z,95.14
2022-10-17T00:03:07.840Z,95.14
2022-10-17T00:04:07.790Z,95.04
2022-10-17T00:05:07.792Z,95.04
2022-10-17T00:06:07.811Z,95.04
2022-10-17T00:07:07.769Z,95.04
2022-10-17T00:08:07.749Z,95.04
2022-10-17T00:09:07.748Z,94.94
2022-10-17T00:10:07.743Z,94.70
2022-10-17T00:11:07.730Z,94.59
2022-10-17T00:12:07.734Z,94.59
2022-10-17T00:13:07.710Z,94.49
2022-10-17T00:14:07.693Z,94.49
2022-10-17T00:15:07.680Z,94.49
2022-10-17T00:16:07.685Z,94.49
2022-10-17T00:17:07.655Z,94.39
2022-10-17T00:18:07.642Z,94.29
2022-10-17T00:19:07.653Z,94.19
2022-10-17T00:20:07.632Z,94.09
2022-10-17T00:21:07.622Z,93.99
2022-10-17T00:22:07.623Z,93.99
2022-10-17T00:23:07.606Z,94.09
2022-10-17T00:24:07.608Z,93.99
2022-10-17T00:25:07.562Z,93.99
2022-10-17T00:26:07.596Z,93.89
2022-10-17T00:27:07.574Z,93.89
2022-10-17T00:28:07.545Z,93.79
2022-10-17T00:29:07.594Z,93.69
2022-10-17T00:30:07.510Z,93.59
2022-10-17T00:31:07.505Z,93.69
2022-10-17T00:32:07.514Z,93.69
2022-10-17T00:33:07.485Z,93.69
2022-10-17T00:34:14.761Z,93.69
2022-10-17T00:35:14.710Z,93.69
2022-10-17T00:36:07.471Z,93.69
2022-10-17T00:37:15.697Z,93.69
2022-10-17T00:38:07.437Z,93.69
2022-10-17T00:39:07.417Z,93.69
2022-10-17T00:40:07.410Z,93.79
2022-10-17T00:41:07.438Z,93.79
2022-10-17T00:42:07.391Z,93.79
2022-10-17T00:43:07.388Z,93.79
2022-10-17T00:44:07.378Z,93.69
2022-10-17T00:45:07.351Z,93.69
2022-10-17T00:46:07.352Z,93.69
2022-10-17T00:47:07.347Z,93.79
2022-10-17T00:48:07.330Z,93.84
2022-10-17T00:49:07.299Z,93.93
2022-10-17T00:50:07.307Z,93.93
2022-10-17T00:51:07.310Z,93.93
2022-10-17T00:52:07.278Z,93.93
2022-10-17T00:53:07.259Z,93.84
2022-10-17T00:54:07.261Z,93.84
2022-10-17T00:55:07.242Z,93.93
2022-10-17T00:56:07.233Z,94.04
2022-10-17T00:57:07.496Z,94.04
2022-10-17T00:58:07.212Z,94.04
2022-10-17T00:59:07.196Z,94.13
2022-10-17T01:00:07.181Z,94.24
2022-10-17T01:01:07.223Z,94.34
2022-10-17T01:02:07.172Z,94.48
2022-10-17T01:03:07.153Z,94.48
2022-10-17T01:04:07.134Z,94.48
2022-10-17T01:05:07.143Z,94.48
2022-10-17T01:06:07.126Z,94.59
2022-10-17T01:07:07.134Z,94.48
2022-10-17T01:08:07.108Z,94.59
2022-10-17T01:09:07.081Z,94.48
2022-10-17T01:10:07.096Z,94.38
2022-10-17T01:11:07.094Z,94.18
2022-10-17T01:12:07.045Z,94.08
2022-10-17T01:13:07.042Z,94.08
2022-10-17T01:14:07.027Z,94.08
2022-10-17T01:15:07.035Z,94.18
2022-10-17T01:16:07.027Z,94.18
2022-10-17T01:17:06.997Z,94.38
2022-10-17T01:18:06.993Z,94.28
2022-10-17T01:19:06.967Z,94.18
2022-10-17T01:20:06.983Z,94.48
2022-10-17T01:21:06.956Z,94.28
2022-10-17T01:22:06.969Z,94.38
2022-10-17T01:23:07.867Z,94.28
2022-10-17T01:24:06.916Z,94.28
2022-10-17T01:25:06.918Z,94.48
2022-10-17T01:26:06.901Z,94.48
2022-10-17T01:27:06.897Z,94.48
2022-10-17T01:28:06.878Z,94.48
2022-10-17T01:29:06.872Z,94.48
2022-10-17T01:30:06.856Z,94.48
2022-10-17T01:31:06.844Z,94.38
2022-10-17T01:32:06.858Z,94.38
2022-10-17T01:33:06.824Z,94.28
2022-10-17T01:34:06.812Z,94.28
2022-10-17T01:35:06.820Z,94.28
2022-10-17T01:36:06.807Z,94.18
2022-10-17T01:37:06.773Z,94.18
2022-10-17T01:38:06.790Z,94.28
2022-10-17T01:39:06.821Z,94.28
2022-10-17T01:40:06.745Z,94.08
2022-10-17T01:41:06.742Z,93.98
2022-10-17T01:42:06.747Z,93.88
2022-10-17T01:43:06.713Z,93.77
2022-10-17T01:44:06.697Z,93.77
2022-10-17T01:45:06.714Z,93.77
2022-10-17T01:46:06.692Z,93.88
2022-10-17T01:47:06.694Z,93.88
2022-10-17T01:48:06.662Z,93.88
2022-10-17T01:49:06.689Z,93.68
2022-10-17T01:50:06.638Z,93.68
2022-10-17T01:51:06.654Z,93.57
2022-10-17T01:52:06.642Z,93.23
2022-10-17T01:53:06.614Z,92.93
2022-10-17T01:54:06.593Z,92.82
2022-10-17T01:55:06.605Z,92.82
2022-10-17T01:56:06.595Z,92.72
2022-10-17T01:57:06.565Z,92.72
2022-10-17T01:58:06.553Z,92.62
2022-10-17T01:59:06.668Z,92.62
2022-10-17T02:00:06.534Z,92.62
2022-10-17T02:01:06.572Z,92.62
2022-10-17T02:02:06.515Z,92.62
2022-10-17T02:03:06.515Z,92.62
2022-10-17T02:04:06.484Z,92.52
2022-10-17T02:05:06.497Z,92.22
2022-10-17T02:06:06.499Z,92.12
2022-10-17T02:07:06.456Z,92.12
2022-10-17T02:08:06.436Z,92.22
2022-10-17T02:09:06.446Z,92.12
2022-10-17T02:10:06.749Z,92.02
2022-10-17T02:11:06.407Z,92.12
2022-10-17T02:12:06.406Z,92.02
2022-10-17T02:13:06.398Z,91.87
2022-10-17T02:14:06.412Z,91.82
2022-10-17T02:15:06.348Z,91.91
2022-10-17T02:16:06.413Z,92.12
2022-10-17T02:17:06.345Z,92.02
2022-10-17T02:18:06.320Z,92.12
2022-10-17T02:19:06.355Z,92.12
2022-10-17T02:20:07.038Z,92.02
2022-10-17T02:21:06.300Z,92.12
2022-10-17T02:22:06.300Z,92.02
2022-10-17T02:23:06.292Z,92.02
2022-10-17T02:24:06.261Z,92.02
2022-10-17T02:25:06.240Z,92.02
2022-10-17T02:26:06.271Z,92.02
2022-10-17T02:27:18.778Z,92.02
2022-10-17T02:28:06.251Z,92.22
2022-10-17T02:29:13.468Z,92.22
2022-10-17T02:30:06.256Z,92.32
2022-10-17T02:31:06.199Z,92.42
2022-10-17T02:32:06.183Z,92.42
2022-10-17T02:33:06.159Z,92.46
2022-10-17T02:34:06.168Z,92.57
2022-10-17T02:35:06.161Z,92.66
2022-10-17T02:36:06.168Z,92.46
2022-10-17T02:37:06.152Z,92.46
2022-10-17T02:38:06.127Z,92.46
2022-10-17T02:39:06.099Z,92.32
2022-10-17T02:40:06.150Z,92.12
2022-10-17T02:41:06.115Z,92.32
2022-10-17T02:42:06.072Z,92.26
2022-10-17T02:43:06.058Z,92.26
2022-10-17T02:44:06.069Z,92.22
2022-10-17T02:45:06.051Z,92.12
2022-10-17T02:46:06.032Z,92.02
2022-10-17T02:47:06.040Z,91.91
2022-10-17T02:48:06.017Z,91.82
2022-10-17T02:49:06.021Z,91.91
2022-10-17T02:50:06.100Z,91.91
2022-10-17T02:51:05.999Z,91.91
2022-10-17T02:52:05.972Z,92.02
2022-10-17T02:53:05.962Z,92.06
2022-10-17T02:54:05.951Z,92.06
2022-10-17T02:55:05.962Z,92.02
2022-10-17T02:56:05.924Z,91.82
2022-10-17T02:57:05.918Z,91.82
2022-10-17T02:58:05.907Z,91.71
2022-10-17T02:59:05.920Z,91.71
2022-10-17T03:00:05.883Z,91.82
2022-10-17T03:01:05.928Z,91.82
2022-10-17T03:02:05.879Z,91.82
2022-10-17T03:03:05.845Z,91.82
2022-10-17T03:04:05.887Z,91.82
2022-10-17T03:05:05.845Z,91.71
2022-10-17T03:06:05.830Z,91.51
2022-10-17T03:07:05.803Z,91.61
2022-10-17T03:08:05.795Z,91.61
2022-10-17T03:09:05.777Z,91.61
2022-10-17T03:10:05.789Z,91.61
2022-10-17T03:11:05.821Z,91.82
2022-10-17T03:12:05.758Z,91.82
2022-10-17T03:13:05.737Z,91.71
2022-10-17T03:14:05.759Z,91.86
2022-10-17T03:15:05.749Z,91.71
2022-10-17T03:16:05.708Z,91.61
2022-10-17T03:17:05.688Z,91.41
2022-10-17T03:18:05.698Z,91.41
2022-10-17T03:19:05.691Z,91.51
2022-10-17T03:20:05.724Z,91.51
2022-10-17T03:21:05.670Z,91.41
2022-10-17T03:22:05.651Z,91.41
2022-10-17T03:23:05.639Z,91.41
2022-10-17T03:24:05.632Z,91.51
2022-10-17T03:25:05.617Z,91.41
2022-10-17T03:26:05.609Z,91.31
2022-10-17T03:27:05.591Z,91.11
2022-10-17T03:28:05.585Z,91.11
2022-10-17T03:29:05.599Z,91.01
2022-10-17T03:30:05.561Z,91.21
2022-10-17T03:31:05.571Z,91.31
2022-10-17T03:32:05.541Z,91.66
2022-10-17T03:33:05.518Z,91.66
2022-10-17T03:34:05.511Z,91.66
2022-10-17T03:35:05.502Z,91.55
2022-10-17T03:36:05.499Z,91.46
2022-10-17T03:37:05.499Z,91.46
2022-10-17T03:38:05.482Z,91.31
2022-10-17T03:39:05.542Z,91.31
2022-10-17T03:40:05.461Z,91.21
2022-10-17T03:41:05.465Z,91.11
2022-10-17T03:42:05.437Z,91.11
2022-10-17T03:43:05.406Z,91.21
2022-10-17T03:44:05.404Z,91.25
2022-10-17T03:45:05.406Z,91.21
2022-10-17T03:46:05.457Z,91.35
2022-10-17T03:47:08.104Z,91.35
2022-10-17T03:48:06.374Z,91.46
2022-10-17T03:49:05.353Z,91.46
2022-10-17T03:50:05.342Z,91.55
2022-10-17T03:51:05.344Z,91.55
2022-10-17T03:52:05.327Z,91.55
2022-10-17T03:53:05.303Z,91.46
2022-10-17T03:54:05.301Z,91.35
2022-10-17T03:55:05.307Z,91.46
2022-10-17T03:56:05.315Z,91.25
2022-10-17T03:57:05.271Z,91.35
2022-10-17T03:58:05.266Z,91.35
2022-10-17T03:59:05.276Z,91.35
2022-10-17T04:00:05.227Z,91.35
2022-10-17T04:01:05.288Z,91.46
2022-10-17T04:02:05.217Z,91.35
2022-10-17T04:03:05.207Z,91.46
2022-10-17T04:04:05.199Z,91.35
2022-10-17T04:05:05.208Z,91.35
2022-10-17T04:06:05.198Z,91.35
2022-10-17T04:07:05.157Z,91.25
2022-10-17T04:08:05.155Z,91.25
2022-10-17T04:09:05.157Z,91.35
2022-10-17T04:10:05.130Z,91.25
2022-10-17T04:11:05.129Z,91.25
2022-10-17T04:12:05.112Z,91.05
2022-10-17T04:13:05.117Z,91.05
2022-10-17T04:14:05.071Z,90.81
2022-10-17T04:15:12.361Z,90.61
2022-10-17T04:16:05.050Z,90.61
2022-10-17T04:17:05.060Z,90.50
2022-10-17T04:19:05.029Z,90.41
2022-10-17T04:20:05.032Z,90.30
2022-10-17T04:21:05.044Z,90.10
2022-10-17T04:22:04.992Z,90.20
2022-10-17T04:23:04.994Z,90.20
2022-10-17T04:24:04.992Z,90.30
2022-10-17T04:25:04.972Z,90.41
2022-10-17T04:26:04.982Z,90.41
2022-10-17T04:27:04.999Z,90.50
2022-10-17T04:28:04.934Z,90.65
2022-10-17T04:29:04.924Z,90.65
2022-10-17T04:30:04.953Z,90.75
2022-10-17T04:31:04.914Z,90.85
2022-10-17T04:32:05.150Z,90.95
2022-10-17T04:33:04.879Z,90.95
2022-10-17T04:34:04.885Z,90.95
2022-10-17T04:35:04.868Z,91.05
2022-10-17T04:36:04.853Z,91.15
2022-10-17T04:37:04.845Z,91.15
2022-10-17T04:38:04.864Z,91.15
2022-10-17T04:39:04.837Z,91.25
2022-10-17T04:40:04.846Z,91.35
2022-10-17T04:41:04.805Z,91.50
2022-10-17T04:42:04.776Z,91.50
2022-10-17T04:43:04.768Z,91.60
2022-10-17T04:44:04.763Z,91.70
2022-10-17T04:45:04.792Z,91.70
2022-10-17T04:46:04.746Z,91.70
2022-10-17T04:47:04.728Z,91.70
2022-10-17T04:48:04.736Z,91.70
2022-10-17T04:49:04.700Z,91.80
2022-10-17T04:50:04.713Z,91.90
2022-10-17T04:51:04.689Z,91.80
2022-10-17T04:52:04.678Z,91.60
2022-10-17T04:53:04.657Z,91.50
2022-10-17T04:54:04.649Z,91.30
2022-10-17T04:55:04.671Z,91.15
2022-10-17T04:56:04.623Z,91.19
2022-10-17T04:57:04.620Z,91.30
2022-10-17T04:58:04.612Z,91.50
2022-10-17T04:59:04.607Z,91.60
2022-10-17T05:00:04.673Z,91.60
2022-10-17T05:01:04.626Z,91.80
2022-10-17T05:02:04.570Z,91.80
2022-10-17T05:03:04.575Z,91.70
2022-10-17T05:04:04.550Z,91.70
2022-10-17T05:05:04.553Z,91.70
2022-10-17T05:06:04.519Z,91.39
2022-10-17T05:07:04.524Z,91.30
2022-10-17T05:08:04.512Z,91.19
2022-10-17T05:09:04.481Z,91.19
2022-10-17T05:10:04.508Z,91.19
2022-10-17T05:11:04.475Z,91.30
2022-10-17T05:12:06.721Z,91.30
2022-10-17T05:13:05.458Z,91.30
2022-10-17T05:14:04.472Z,91.50
2022-10-17T05:15:04.453Z,91.60
2022-10-17T05:16:04.406Z,91.60
2022-10-17T05:17:04.423Z,91.50
2022-10-17T05:18:04.414Z,91.50
2022-10-17T05:19:04.383Z,91.50
2022-10-17T05:20:04.414Z,91.50
2022-10-17T05:21:04.366Z,91.60
2022-10-17T05:22:04.360Z,91.60
2022-10-17T05:23:04.338Z,91.60
2022-10-17T05:24:04.336Z,91.70
2022-10-17T05:25:04.356Z,91.50
2022-10-17T05:26:04.317Z,91.19
2022-10-17T05:27:04.303Z,91.09
2022-10-17T05:28:04.307Z,90.89
2022-10-17T05:29:05.507Z,90.89
2022-10-17T05:30:04.276Z,90.89
2022-10-17T05:31:04.265Z,90.99
2022-10-17T05:32:04.258Z,90.79
2022-10-17T05:33:04.227Z,90.69
2022-10-17T05:34:04.248Z,90.45
2022-10-17T05:35:04.236Z,90.45
2022-10-17T05:36:04.196Z,90.55
2022-10-17T05:37:04.199Z,90.59
2022-10-17T05:38:04.203Z,90.89
2022-10-17T05:39:04.177Z,90.99
2022-10-17T05:40:04.164Z,90.99
2022-10-17T05:41:04.176Z,90.99
2022-10-17T05:42:04.144Z,91.09
2022-10-17T05:43:04.143Z,91.09
2022-10-17T05:44:05.623Z,91.19
2022-10-17T05:45:04.120Z,91.19
2022-10-17T05:46:04.121Z,91.34
2022-10-17T05:47:04.080Z,91.34
2022-10-17T05:48:04.080Z,91.34
2022-10-17T05:49:14.664Z,91.85
2022-10-17T05:50:05.054Z,92.05
2022-10-17T05:51:04.060Z,92.14
2022-10-17T05:52:04.051Z,92.14
2022-10-17T05:53:04.016Z,92.69
2022-10-17T05:54:04.011Z,92.69
2022-10-17T05:55:04.030Z,92.69
2022-10-17T05:56:03.994Z,92.60
2022-10-17T05:57:04.000Z,92.60
2022-10-17T05:58:03.962Z,92.69
2022-10-17T05:59:03.960Z,92.80
2022-10-17T06:00:03.952Z,93.00
2022-10-17T06:01:13.477Z,93.20
2022-10-17T06:02:11.278Z,93.20
2022-10-17T06:03:11.163Z,93.30
2022-10-17T06:04:11.157Z,93.30
2022-10-17T06:05:12.144Z,93.30
2022-10-17T06:06:12.133Z,93.35
2022-10-17T06:07:03.855Z,93.44
2022-10-17T06:08:03.843Z,93.44
2022-10-17T06:09:03.841Z,93.55
2022-10-17T06:10:03.841Z,93.65
2022-10-17T06:11:06.144Z,93.75
2022-10-17T06:12:04.818Z,93.85
2022-10-17T06:13:03.806Z,93.85
2022-10-17T06:14:03.792Z,93.95
2022-10-17T06:15:04.036Z,94.26
2022-10-17T06:16:03.796Z,94.36
2022-10-17T06:17:03.752Z,94.36
2022-10-17T06:18:03.739Z,94.50
2022-10-17T06:19:03.754Z,94.46
2022-10-17T06:20:03.744Z,94.60
2022-10-17T06:21:03.752Z,94.46
2022-10-17T06:22:03.725Z,94.36
2022-10-17T06:23:03.706Z,94.15
2022-10-17T06:24:03.679Z,94.36
2022-10-17T06:25:03.667Z,94.06
2022-10-17T06:26:03.717Z,93.75
2022-10-17T06:27:05.853Z,93.75
2022-10-17T06:28:04.904Z,93.85
2022-10-17T06:29:03.681Z,93.95
2022-10-17T06:30:03.657Z,93.95
2022-10-17T06:31:03.618Z,93.85
2022-10-17T06:32:03.595Z,93.75
2022-10-17T06:33:03.590Z,93.75
2022-10-17T06:34:03.578Z,93.65
2022-10-17T06:35:03.575Z,93.65
2022-10-17T06:36:03.556Z,93.55
2022-10-17T06:37:03.560Z,93.40
2022-10-17T06:38:03.549Z,93.40
2022-10-17T06:39:03.533Z,93.51
2022-10-17T06:40:03.539Z,93.51
2022-10-17T06:41:03.499Z,93.44
2022-10-17T06:42:03.494Z,93.44
2022-10-17T06:43:03.488Z,93.55
2022-10-17T06:44:03.467Z,93.44
2022-10-17T06:45:03.475Z,93.55
2022-10-17T06:46:03.469Z,93.85
2022-10-17T06:47:03.459Z,93.85
2022-10-17T06:48:03.432Z,93.65
2022-10-17T06:49:07.451Z,93.60
2022-10-17T06:50:03.420Z,93.60
2022-10-17T06:51:03.384Z,93.51
2022-10-17T06:52:03.475Z,93.91
2022-10-17T06:53:03.376Z,93.60
2022-10-17T06:54:03.376Z,93.51
2022-10-17T06:56:03.382Z,93.30
2022-10-17T06:57:03.322Z,93.20
2022-10-17T06:58:03.302Z,93.10
2022-10-17T06:59:03.347Z,92.90
2022-10-17T07:00:03.302Z,92.65
2022-10-17T07:01:03.350Z,92.55
2022-10-17T07:02:03.390Z,92.45
2022-10-17T07:03:04.284Z,92.45
2022-10-17T07:04:03.254Z,92.25
2022-10-17T07:05:03.262Z,91.80
2022-10-17T07:06:03.243Z,91.50
2022-10-17T07:07:03.229Z,91.19
2022-10-17T07:08:03.214Z,90.75
2022-10-17T07:09:03.217Z,90.65
2022-10-17T07:10:03.214Z,90.65
2022-10-17T07:11:03.214Z,90.45
2022-10-17T07:12:03.303Z,90.34
2022-10-17T07:13:03.185Z,90.04
2022-10-17T07:14:03.164Z,89.70
2022-10-17T07:15:03.222Z,89.50
2022-10-17T07:16:03.179Z,89.39
2022-10-17T07:17:03.105Z,89.19
2022-10-17T07:18:03.095Z,89.09
2022-10-17T07:19:03.100Z,88.95
2022-10-17T07:20:03.107Z,88.65
2022-10-17T07:21:03.067Z,88.65
2022-10-17T07:22:03.158Z,88.45
2022-10-17T07:23:03.043Z,88.65
2022-10-17T07:24:03.078Z,88.75
2022-10-17T07:25:03.035Z,88.45
2022-10-17T07:26:03.006Z,88.34
2022-10-17T07:27:02.983Z,88.45
2022-10-17T07:28:03.015Z,88.85
2022-10-17T07:29:03.697Z,88.65
2022-10-17T07:30:02.966Z,88.75
2022-10-17T07:31:02.931Z,88.45
2022-10-17T07:32:03.008Z,88.54
2022-10-17T07:33:03.278Z,88.54
2022-10-17T07:34:02.911Z,88.54
2022-10-17T07:35:02.901Z,88.54
2022-10-17T07:36:02.860Z,88.54
2022-10-17T07:37:02.863Z,88.65
2022-10-17T07:38:02.850Z,88.65
2022-10-17T07:39:02.842Z,88.75
2022-10-17T07:40:02.852Z,88.85
2022-10-17T07:41:02.842Z,89.15
2022-10-17T07:42:02.840Z,89.15
2022-10-17T07:43:02.981Z,88.95
2022-10-17T07:44:02.796Z,89.05
2022-10-17T07:45:02.799Z,89.15
2022-10-17T07:46:02.761Z,89.05
2022-10-17T07:47:02.741Z,89.25
2022-10-17T07:48:10.997Z,89.05
2022-10-17T07:49:11.036Z,89.25
2022-10-17T07:50:09.983Z,89.35
2022-10-17T07:51:10.949Z,89.35
2022-10-17T07:52:10.952Z,89.65
2022-10-17T07:53:14.879Z,89.35
2022-10-17T07:54:10.944Z,89.05
2022-10-17T07:55:10.942Z,89.05
2022-10-17T07:56:10.758Z,88.85
2022-10-17T07:57:02.637Z,88.60
2022-10-17T07:58:02.618Z,88.60
2022-10-17T07:59:05.203Z,88.81
2022-10-17T08:00:03.643Z,88.70
2022-10-17T08:02:02.570Z,88.60
2022-10-17T08:03:02.709Z,88.30
2022-10-17T08:04:02.573Z,88.10
2022-10-17T08:05:02.558Z,88.10
2022-10-17T08:06:02.572Z,88.10
2022-10-17T08:07:18.383Z,87.85
2022-10-17T08:08:03.521Z,87.96
2022-10-17T08:09:02.500Z,87.65
2022-10-17T08:10:02.605Z,87.45
2022-10-17T08:11:02.620Z,87.25
2022-10-17T08:12:02.546Z,87.15
2022-10-17T08:13:02.532Z,87.15
2022-10-17T08:14:02.742Z,86.61
2022-10-17T08:15:02.434Z,86.61
2022-10-17T08:16:02.463Z,86.30
2022-10-17T08:17:02.401Z,86.21
2022-10-17T08:18:02.397Z,86.00
2022-10-17T08:19:02.683Z,85.76
2022-10-17T08:20:02.375Z,85.96
2022-10-17T08:21:02.373Z,85.96
2022-10-17T08:22:02.370Z,85.86
2022-10-17T08:23:02.344Z,85.36
2022-10-17T08:24:02.313Z,85.05
2022-10-17T08:25:02.359Z,84.51
2022-10-17T08:26:02.317Z,84.91
2022-10-17T08:27:02.285Z,84.91
2022-10-17T08:28:02.300Z,84.61
2022-10-17T08:29:02.403Z,84.61
2022-10-17T08:30:02.385Z,84.61
2022-10-17T08:31:02.286Z,84.27
2022-10-17T08:32:03.673Z,84.27
2022-10-17T08:33:02.270Z,84.17
2022-10-17T08:34:02.207Z,84.17
2022-10-17T08:35:02.197Z,84.17
2022-10-17T08:36:02.197Z,83.76
2022-10-17T08:37:02.408Z,84.07
2022-10-17T08:38:02.184Z,84.17
2022-10-17T08:39:02.186Z,83.97
2022-10-17T08:40:02.157Z,84.27
2022-10-17T08:41:02.150Z,84.17
2022-10-17T08:42:02.186Z,84.17
2022-10-17T08:43:02.168Z,83.97
2022-10-17T08:44:02.097Z,83.76
2022-10-17T08:45:02.348Z,83.76
2022-10-17T08:46:02.168Z,83.57
2022-10-17T08:47:02.061Z,83.93
2022-10-17T08:48:02.038Z,83.83
2022-10-17T08:49:02.039Z,83.93
2022-10-17T08:50:02.105Z,83.93
2022-10-17T08:51:02.031Z,84.03
2022-10-17T08:52:02.023Z,84.03
2022-10-17T08:53:02.022Z,83.83
2022-10-17T08:54:01.973Z,83.73
2022-10-17T08:55:01.963Z,84.03
2022-10-17T08:56:01.965Z,83.93
2022-10-17T08:57:01.932Z,83.93
2022-10-17T08:58:01.938Z,83.93
2022-10-17T08:59:01.920Z,83.53
2022-10-17T09:00:01.921Z,84.13
2022-10-17T09:01:01.902Z,83.99
2022-10-17T09:02:01.900Z,83.39
2022-10-17T09:03:02.667Z,83.29
2022-10-17T09:04:01.880Z,83.39
2022-10-17T09:05:01.890Z,83.23
2022-10-17T09:06:01.852Z,83.73
2022-10-17T09:07:01.830Z,83.63
2022-10-17T09:08:01.823Z,83.93
2022-10-17T09:09:02.459Z,83.53
2022-10-17T09:10:01.805Z,83.43
2022-10-17T09:11:01.804Z,83.29
2022-10-17T09:12:01.782Z,83.59
2022-10-17T09:13:07.620Z,83.39
2022-10-17T09:14:02.746Z,83.49
2022-10-17T09:15:01.729Z,83.09
2022-10-17T09:16:01.761Z,83.09
2022-10-17T09:17:01.707Z,82.78
2022-10-17T09:18:01.708Z,82.68
2022-10-17T09:19:01.736Z,82.34
2022-10-17T09:20:01.687Z,82.54
2022-10-17T09:21:01.762Z,82.34
2022-10-17T09:22:01.685Z,81.90
2022-10-17T09:23:01.712Z,81.67
2022-10-17T09:24:09.446Z,81.06
2022-10-17T09:25:02.688Z,80.82
2022-10-17T09:26:02.636Z,80.12
2022-10-17T09:27:01.648Z,80.12
2022-10-17T09:28:01.588Z,79.78
2022-10-17T09:29:01.751Z,79.58
2022-10-17T09:30:01.659Z,79.38
2022-10-17T09:31:01.585Z,79.24
2022-10-17T09:32:01.652Z,79.54
2022-10-17T09:33:01.615Z,79.04
2022-10-17T09:34:01.613Z,78.54
2022-10-17T09:35:01.649Z,78.70
2022-10-17T09:36:01.623Z,78.70
2022-10-17T09:37:01.506Z,78.20
2022-10-17T09:38:01.499Z,77.91
2022-10-17T09:39:01.482Z,77.76
2022-10-17T09:40:01.454Z,77.10
2022-10-17T09:41:01.577Z,77.60
2022-10-17T09:42:01.486Z,77.70
2022-10-17T09:43:01.450Z,76.97
2022-10-17T09:44:08.709Z,77.56
2022-10-17T09:45:08.688Z,76.56
2022-10-17T09:46:01.408Z,77.36
2022-10-17T09:47:09.687Z,77.17
2022-10-17T09:48:01.901Z,77.67
2022-10-17T09:50:01.473Z,77.36
2022-10-17T09:51:21.914Z,77.56
2022-10-17T09:52:02.323Z,77.36
2022-10-17T09:53:02.047Z,77.67
2022-10-17T09:54:01.371Z,77.36
2022-10-17T09:55:01.913Z,77.56
2022-10-17T09:56:01.312Z,77.47
2022-10-17T09:57:01.277Z,77.47
2022-10-17T09:58:01.255Z,77.73
2022-10-17T09:59:01.264Z,77.63
2022-10-17T10:00:01.335Z,78.13
2022-10-17T10:01:01.636Z,77.23
2022-10-17T10:02:01.285Z,77.23
2022-10-17T10:03:01.207Z,76.83
2022-10-17T10:04:01.196Z,76.13
2022-10-17T10:05:06.031Z,76.29
2022-10-17T10:06:02.222Z,75.89
2022-10-17T10:07:01.212Z,76.19
2022-10-17T10:08:01.166Z,75.99
2022-10-17T10:09:01.165Z,76.29
2022-10-17T10:10:01.140Z,76.09
2022-10-17T10:11:01.131Z,75.99
2022-10-17T10:12:01.157Z,75.69
2022-10-17T10:13:01.101Z,75.59
2022-10-17T10:14:01.100Z,75.76
2022-10-17T10:15:01.079Z,75.96
2022-10-17T10:16:01.071Z,75.65
2022-10-17T10:17:01.062Z,75.42
2022-10-17T10:18:01.101Z,75.32
2022-10-17T10:19:02.753Z,74.82
2022-10-17T10:20:01.024Z,74.49
2022-10-17T10:21:01.001Z,74.82
2022-10-17T10:22:01.037Z,74.32
2022-10-17T10:23:00.975Z,74.12
2022-10-17T10:24:01.011Z,73.82
2022-10-17T10:25:00.966Z,73.79
2022-10-17T10:26:01.080Z,73.92
2022-10-17T10:27:01.001Z,74.32
2022-10-17T10:28:01.665Z,74.82
2022-10-17T10:29:00.994Z,74.92
2022-10-17T10:30:00.912Z,75.05
2022-10-17T10:31:00.915Z,75.35
2022-10-17T10:32:00.876Z,75.46
2022-10-17T10:33:00.915Z,75.02
2022-10-17T10:34:00.866Z,74.92
2022-10-17T10:35:00.875Z,74.62
2022-10-17T10:36:00.857Z,74.72
2022-10-17T10:37:00.825Z,74.92
2022-10-17T10:38:00.882Z,74.62
2022-10-17T10:39:03.830Z,74.62
2022-10-17T10:40:00.795Z,74.79
2022-10-17T10:41:00.795Z,74.98
2022-10-17T10:42:00.758Z,74.52
2022-10-17T10:43:05.214Z,74.19
2022-10-17T10:44:01.744Z,73.88
2022-10-17T10:45:01.717Z,73.65
2022-10-17T10:46:00.763Z,73.25
2022-10-17T10:47:00.754Z,73.75
2022-10-17T10:48:00.712Z,73.75
2022-10-17T10:49:00.694Z,73.55
2022-10-17T10:50:00.678Z,73.55
2022-10-17T10:51:00.703Z,73.45
2022-10-17T10:52:00.638Z,73.55
2022-10-17T10:53:00.637Z,73.35
2022-10-17T10:54:00.643Z,73.35
2022-10-17T10:55:00.632Z,73.05
2022-10-17T10:56:00.650Z,72.62
2022-10-17T10:57:00.592Z,72.81
2022-10-17T10:58:00.603Z,72.02
2022-10-17T10:59:00.572Z,72.75
2022-10-17T11:00:00.571Z,72.75
2022-10-17T11:01:00.645Z,72.12
2022-10-17T11:02:00.541Z,72.52
2022-10-17T11:03:01.834Z,71.92
2022-10-17T11:04:00.533Z,71.72
2022-10-17T11:05:00.537Z,72.02
2022-10-17T11:06:00.527Z,71.82
2022-10-17T11:07:00.489Z,72.22
2022-10-17T11:08:00.504Z,72.62
2022-10-17T11:09:00.496Z,72.02
2022-10-17T11:10:00.472Z,72.62
2022-10-17T11:11:00.491Z,72.62
2022-10-17T11:12:00.423Z,72.62
2022-10-17T11:13:00.428Z,72.52
2022-10-17T11:14:01.481Z,73.35
2022-10-17T11:15:01.228Z,73.05
2022-10-17T11:16:00.411Z,73.35
2022-10-17T11:17:00.679Z,73.45
2022-10-17T11:18:00.394Z,73.35
2022-10-17T11:19:00.508Z,73.65
2022-10-17T11:20:00.347Z,74.35
2022-10-17T11:21:00.347Z,74.75
2022-10-17T11:22:00.316Z,73.35
2022-10-17T11:23:00.312Z,73.55
2022-10-17T11:24:00.308Z,73.65
2022-10-17T11:25:00.281Z,72.89
2022-10-17T11:26:00.291Z,73.15
2022-10-17T11:27:00.279Z,73.55
2022-10-17T11:28:04.713Z,72.95
2022-10-17T11:29:01.323Z,73.32
2022-10-17T11:30:00.250Z,73.02
2022-10-17T11:31:02.329Z,73.42
2022-10-17T11:32:00.225Z,73.22
2022-10-17T11:33:00.991Z,73.42
2022-10-17T11:34:00.190Z,73.22
2022-10-17T11:35:00.227Z,73.61
2022-10-17T11:36:00.173Z,73.72
2022-10-17T11:37:00.159Z,74.05
2022-10-17T11:38:08.404Z,74.15
2022-10-17T11:39:07.759Z,74.05
2022-10-17T11:40:07.408Z,73.99
2022-10-17T11:41:07.346Z,74.19
2022-10-17T11:42:08.868Z,73.79
2022-10-17T11:43:00.118Z,74.32
2022-10-17T11:44:00.055Z,74.62
2022-10-17T11:45:00.080Z,75.32
2022-10-17T11:46:00.035Z,74.72
2022-10-17T11:47:00.068Z,75.12
2022-10-17T11:48:00.039Z,75.52
2022-10-17T11:49:00.018Z,75.32
2022-10-17T11:51:59.658Z,75.52
2022-10-17T11:52:02.375Z,75.38
2022-10-17T11:53:00.296Z,75.09
2022-10-17T11:53:59.960Z,75.18
2022-10-17T11:54:59.988Z,74.29
2022-10-17T11:55:59.919Z,74.38
2022-10-17T11:56:59.938Z,74.35
2022-10-17T11:57:59.960Z,74.88
2022-10-17T11:58:59.910Z,74.29
2022-10-17T11:59:59.945Z,74.75
2022-10-17T12:00:59.893Z,74.15
2022-10-17T12:01:59.873Z,73.85
2022-10-17T12:02:59.908Z,74.15
2022-10-17T12:03:59.887Z,74.38
2022-10-17T12:05:00.168Z,74.29
2022-10-17T12:05:59.830Z,74.38
2022-10-17T12:06:59.843Z,74.79
2022-10-17T12:08:00.631Z,74.88
2022-10-17T12:08:59.829Z,75.09
2022-10-17T12:09:59.822Z,75.18
2022-10-17T12:11:02.713Z,74.98
2022-10-17T12:11:59.756Z,74.98
2022-10-17T12:12:59.789Z,74.88
2022-10-17T12:14:04.934Z,75.18
2022-10-17T12:15:00.745Z,75.09
2022-10-17T12:15:59.716Z,75.48
2022-10-17T12:16:59.707Z,75.48
2022-10-17T12:17:59.694Z,76.02
2022-10-17T12:18:59.679Z,75.92
2022-10-17T12:19:59.767Z,75.62
2022-10-17T12:20:59.740Z,76.12
2022-10-17T12:21:59.785Z,76.72
2022-10-17T12:22:59.650Z,76.32
2022-10-17T12:23:59.685Z,76.12
2022-10-17T12:24:59.897Z,76.42
2022-10-17T12:26:01.638Z,76.35
2022-10-17T12:26:59.589Z,76.35
2022-10-17T12:27:59.682Z,76.86
2022-10-17T12:28:59.622Z,76.65
2022-10-17T12:29:59.632Z,76.26
2022-10-17T12:30:59.624Z,76.32
2022-10-17T12:31:59.551Z,76.42
2022-10-17T12:33:07.828Z,76.42
2022-10-17T12:34:00.532Z,76.92
2022-10-17T12:34:59.510Z,76.72
2022-10-17T12:35:59.488Z,76.62
2022-10-17T12:36:59.492Z,76.12
2022-10-17T12:38:00.602Z,76.92
2022-10-17T12:39:00.489Z,76.72
2022-10-17T12:40:00.093Z,76.52
2022-10-17T12:40:59.624Z,76.52
2022-10-17T12:41:59.576Z,76.32
2022-10-17T12:42:59.773Z,76.08
2022-10-17T12:43:59.415Z,76.18
2022-10-17T12:45:00.459Z,76.58
2022-10-17T12:45:59.402Z,77.22
2022-10-17T12:46:59.363Z,76.92
2022-10-17T12:47:59.565Z,77.32
2022-10-17T12:48:59.553Z,77.22
2022-10-17T12:50:00.087Z,77.12
2022-10-17T12:51:17.558Z,77.12
2022-10-17T12:52:01.201Z,76.82
2022-10-17T12:52:59.772Z,76.92
2022-10-17T12:54:00.100Z,77.75
2022-10-17T12:55:11.132Z,77.56
2022-10-17T12:56:00.287Z,77.36
2022-10-17T12:56:59.882Z,77.56